Main page
METAR-TAF:

METAR-TAF

Airports :

Katowice International Airport

Katowice, Poland

latitude: 50-28-27N, longitude: 019-04-48E, elevation: 284 m

Current weather observation

The report was made 30 minutes ago, at 08:30 UTC
Wind 8 kt from the East
Temperature 6°C
Humidity 87%
Pressure 1016 hPa
Visibility 10 km or more
no clouds below 1500 m and no cumulonimbus

METAR: EPKT 220830Z 10008KT CAVOK 06/04 Q1016

Time: 10:00 (09:00 UTC)

Forecast

The report was made 3 hours and 30 minutes ago, at 05:30 UTC
Forecast valid from 22 at 06 UTC to 23 at 06 UTC
Wind 14 kt from the East
Visibility 10 km or more
Broken clouds at a height of 600 ft
Becoming
from 22 at 06 UTC to 22 at 09 UTC
Broken clouds at a height of 3000 ft
Temporary
from 23 at 00 UTC to 23 at 06 UTC
Broken clouds at a height of 400 ft

TAF: EPKT 220530Z 2206/2306 10014KT 9999 BKN006 BECMG 2206/2209 BKN030 TEMPO 2300/2306 BKN004

Weather observations and forecasts of more than 4000 airports (METAR and TAF reports).

The available stations are represented by yellow and red dots on the map.

Hover mouse over dot to see the name of the station.

Then click to see weather observations and forecasts.

To change the map : click on the green buttons with a black cross to zoom in, on the green button with a dash to zoom out, or on the green arrows for adjacent maps.


METAR-TAF: